Time;durP1;ratioP1;P1;durP2;ratioP2;P2;SDS_P1;SDS_P2;PMS_P1;PMS_P2;Temp;Humidity;BMP_temperature;BMP_pressure;BME280_temperature;BME280_humidity;BME280_pressure;Samples;Min_cycle;Max_cycle;Signal;HPM_P1;HPM_P2
2023/02/23 00:01:43;;;;;;;101.13;39.50;;;7.40;99.90;;;;;;5026766;28;20128;-64
2023/02/23 00:04:09;;;;;;;85.32;38.28;;;7.40;99.90;;;;;;5011626;28;20424;-64
2023/02/23 00:06:36;;;;;;;86.28;37.58;;;7.40;99.90;;;;;;5022869;28;20050;-64
2023/02/23 00:11:53;;;;;;;80.63;36.75;;;7.40;99.90;;;;;;5013258;28;20038;-64
2023/02/23 00:14:19;;;;;;;78.88;34.78;;;7.30;99.90;;;;;;5012362;28;20080;-64
2023/02/23 00:16:45;;;;;;;68.82;31.40;;;7.40;99.90;;;;;;5008657;28;20500;-65
2023/02/23 00:19:12;;;;;;;79.57;35.85;;;7.30;99.90;;;;;;5022000;28;20082;-65
2023/02/23 00:21:40;;;;;;;94.47;44.47;;;7.30;99.90;;;;;;5008566;28;20088;-64
2023/02/23 00:24:07;;;;;;;83.82;39.67;;;7.30;99.90;;;;;;5008168;28;20445;-65
2023/02/23 00:26:36;;;;;;;80.68;35.45;;;7.30;99.90;;;;;;5011365;28;20128;-65
2023/02/23 00:29:05;;;;;;;91.93;39.80;;;7.30;99.90;;;;;;5016610;28;20042;-64
2023/02/23 00:31:31;;;;;;;95.10;42.50;;;7.30;99.90;;;;;;5021076;28;20084;-64
2023/02/23 00:33:58;;;;;;;95.68;41.45;;;7.30;99.90;;;;;;5016026;28;20069;-69
2023/02/23 00:36:32;;;;;;;91.85;41.33;;;7.30;99.90;;;;;;5005705;28;20117;-64
2023/02/23 00:39:00;;;;;;;91.22;41.55;;;7.30;99.90;;;;;;5007572;28;20078;-64
2023/02/23 00:41:29;;;;;;;94.30;40.92;;;7.30;99.90;;;;;;5018434;28;20045;-66
2023/02/23 00:43:57;;;;;;;72.38;33.60;;;7.30;99.90;;;;;;5023197;28;20074;-65
2023/02/23 00:46:28;;;;;;;80.45;39.20;;;7.30;99.90;;;;;;5009185;28;20463;-68
2023/02/23 00:48:56;;;;;;;73.35;32.97;;;7.20;99.90;;;;;;5008879;28;20419;-64
2023/02/23 00:51:29;;;;;;;82.68;35.85;;;7.20;99.90;;;;;;5006518;28;20408;-64
2023/02/23 00:53:57;;;;;;;91.60;37.95;;;7.20;99.90;;;;;;5009428;28;20377;-64
2023/02/23 00:56:23;;;;;;;85.75;37.67;;;7.30;99.90;;;;;;5007651;28;20129;-65
2023/02/23 00:58:49;;;;;;;78.63;35.95;;;7.20;99.90;;;;;;5008800;28;20137;-65
2023/02/23 01:01:16;;;;;;;81.57;36.72;;;7.30;99.90;;;;;;5007355;28;20100;-65
2023/02/23 01:03:43;;;;;;;90.50;40.88;;;7.20;99.90;;;;;;5008553;28;20481;-64
2023/02/23 01:06:12;;;;;;;83.03;37.83;;;7.20;99.90;;;;;;4994032;28;20129;-64
2023/02/23 01:08:41;;;;;;;94.45;41.63;;;7.20;99.90;;;;;;5023553;28;20049;-64
2023/02/23 01:11:13;;;;;;;79.93;38.67;;;7.20;99.90;;;;;;5011410;28;20084;-64
2023/02/23 01:13:41;;;;;;;82.10;39.28;;;7.30;99.90;;;;;;5008773;28;20599;-64
2023/02/23 01:16:09;;;;;;;81.45;39.38;;;7.30;99.90;;;;;;5020912;28;20049;-65
2023/02/23 01:18:37;;;;;;;77.50;36.33;;;7.30;99.90;;;;;;5007473;28;20042;-64
2023/02/23 01:21:04;;;;;;;88.38;39.00;;;7.30;99.90;;;;;;5025101;28;20507;-64
2023/02/23 01:23:30;;;;;;;86.93;39.08;;;7.30;99.90;;;;;;5028791;28;20037;-64
2023/02/23 01:25:56;;;;;;;84.13;40.20;;;7.30;99.90;;;;;;5013901;28;20049;-65
2023/02/23 01:28:22;;;;;;;93.35;41.40;;;7.30;99.90;;;;;;5009048;28;20120;-65
2023/02/23 01:30:48;;;;;;;120.57;51.67;;;7.30;99.90;;;;;;5015587;28;20125;-64
2023/02/23 01:33:14;;;;;;;108.93;47.70;;;7.30;99.90;;;;;;5024063;28;20522;-65
2023/02/23 01:35:40;;;;;;;106.75;47.90;;;7.30;99.90;;;;;;5006886;28;20583;-64
2023/02/23 01:38:06;;;;;;;129.95;58.15;;;7.30;99.90;;;;;;5008842;28;20058;-65
2023/02/23 01:40:35;;;;;;;112.85;46.38;;;7.30;99.90;;;;;;5006970;28;20081;-64
2023/02/23 01:43:24;;;;;;;103.90;43.78;;;7.30;99.90;;;;;;5007292;28;20052;-64
2023/02/23 01:45:55;;;;;;;118.57;49.00;;;7.30;99.90;;;;;;5006888;28;20108;-64
2023/02/23 01:48:33;;;;;;;133.57;54.13;;;7.30;99.90;;;;;;5006679;28;20088;-65
2023/02/23 01:51:03;;;;;;;112.40;46.05;;;7.40;99.90;;;;;;5008483;28;20112;-65
2023/02/23 01:53:32;;;;;;;132.38;53.88;;;7.40;99.90;;;;;;5020456;28;20053;-64
2023/02/23 01:56:10;;;;;;;113.88;47.47;;;7.30;99.90;;;;;;5005539;28;20078;-65
2023/02/23 01:58:39;;;;;;;91.78;39.55;;;7.40;99.90;;;;;;5007409;28;20066;-66
2023/02/23 02:01:05;;;;;;;102.03;42.42;;;7.40;99.90;;;;;;5006043;28;20512;-65
2023/02/23 02:03:55;;;;;;;84.35;37.03;;;7.30;99.90;;;;;;5008178;28;20050;-64
2023/02/23 02:06:23;;;;;;;98.28;41.55;;;7.30;99.90;;;;;;5008268;28;20436;-64
2023/02/23 02:08:54;;;;;;;101.97;41.70;;;7.30;99.90;;;;;;5007089;28;20582;-64
2023/02/23 02:11:28;;;;;;;94.20;40.50;;;7.40;99.90;;;;;;5007457;28;20037;-68
2023/02/23 02:13:58;;;;;;;100.47;39.90;;;7.30;99.90;;;;;;5005481;28;20054;-64
2023/02/23 02:16:33;;;;;;;99.18;39.90;;;7.40;99.90;;;;;;5008501;28;20038;-65
2023/02/23 02:19:23;;;;;;;111.95;42.75;;;7.30;99.90;;;;;;5006828;28;20060;-64
2023/02/23 02:22:08;;;;;;;96.78;39.88;;;7.40;99.90;;;;;;5018269;28;20142;-64
2023/02/23 02:25:05;;;;;;;93.40;40.30;;;7.30;99.90;;;;;;5009908;28;20046;-66
2023/02/23 02:27:42;;;;;;;89.85;40.72;;;7.40;99.90;;;;;;5008423;28;20512;-64
2023/02/23 02:31:01;;;;;;;100.47;41.35;;;7.30;99.90;;;;;;5006980;28;20050;-64
2023/02/23 02:33:33;;;;;;;98.45;43.70;;;7.40;99.90;;;;;;4973217;28;20038;-64
2023/02/23 02:36:22;;;;;;;101.68;42.53;;;7.40;99.90;;;;;;5008391;28;20045;-65
2023/02/23 02:39:33;;;;;;;109.15;42.72;;;7.30;99.90;;;;;;5014711;28;20132;-64
2023/02/23 02:42:02;;;;;;;96.55;41.15;;;7.30;99.90;;;;;;5010036;28;20527;-64
2023/02/23 02:45:23;;;;;;;99.78;40.80;;;7.40;99.90;;;;;;5008727;28;20499;-65
2023/02/23 02:48:29;;;;;;;94.38;42.40;;;7.30;99.90;;;;;;4997956;28;20115;-65
2023/02/23 02:50:59;;;;;;;109.22;43.00;;;7.40;99.90;;;;;;5006682;28;20612;-64
2023/02/23 02:53:40;;;;;;;109.60;41.03;;;7.30;99.90;;;;;;5009989;28;20045;-64
2023/02/23 02:56:07;;;;;;;102.72;43.13;;;7.40;99.90;;;;;;5020571;28;20454;-65
2023/02/23 02:58:34;;;;;;;94.38;39.40;;;7.30;99.90;;;;;;5013511;28;20046;-85
2023/02/23 04:18:36;;;;;;;87.75;38.60;;;7.30;99.90;;;;;;5006840;28;20126;-80
2023/02/23 04:21:03;;;;;;;94.18;40.67;;;7.30;99.90;;;;;;5009499;28;20112;-65
2023/02/23 04:23:29;;;;;;;97.20;41.97;;;7.30;99.90;;;;;;5011510;28;20034;-65
2023/02/23 04:25:55;;;;;;;114.72;44.40;;;7.30;99.90;;;;;;5015101;28;20045;-67
2023/02/23 04:28:23;;;;;;;108.05;46.53;;;7.30;99.90;;;;;;5008226;28;20038;-65
2023/02/23 04:30:51;;;;;;;117.47;49.03;;;7.30;99.90;;;;;;5025148;28;20061;-65
2023/02/23 04:33:17;;;;;;;118.07;48.28;;;7.30;99.90;;;;;;5023910;28;20100;-65
2023/02/23 04:35:43;;;;;;;116.03;47.75;;;7.30;99.90;;;;;;5024345;28;20129;-74
2023/02/23 04:38:08;;;;;;;115.57;48.67;;;7.30;99.90;;;;;;5011178;28;20169;-66
2023/02/23 04:40:34;;;;;;;116.10;47.60;;;7.30;99.90;;;;;;5010094;28;20128;-65
2023/02/23 04:43:00;;;;;;;116.57;48.80;;;7.30;99.90;;;;;;5011765;28;20037;-85
2023/02/23 04:45:27;;;;;;;97.53;41.05;;;7.30;99.90;;;;;;5015962;28;20030;-65
2023/02/23 04:47:53;;;;;;;101.78;42.83;;;7.30;99.90;;;;;;5014194;28;20038;-65
2023/02/23 04:50:19;;;;;;;118.15;48.63;;;7.30;99.90;;;;;;5014074;28;20037;-73
2023/02/23 04:52:45;;;;;;;115.88;47.97;;;7.20;99.90;;;;;;5015343;28;20148;-67
2023/02/23 04:55:21;;;;;;;112.43;42.00;;;7.30;99.90;;;;;;5023196;28;20438;-65
2023/02/23 04:57:47;;;;;;;109.07;44.10;;;7.30;99.90;;;;;;5013403;28;20061;-66
2023/02/23 05:00:14;;;;;;;111.88;43.67;;;7.30;99.90;;;;;;5015340;28;20646;-65
2023/02/23 05:02:40;;;;;;;121.38;47.80;;;7.30;99.90;;;;;;4991512;28;20054;-65
2023/02/23 05:05:08;;;;;;;120.18;45.88;;;7.30;99.90;;;;;;5019494;28;20067;-66
2023/02/23 05:07:34;;;;;;;110.07;46.47;;;7.30;99.90;;;;;;5018085;28;20340;-65
2023/02/23 05:10:00;;;;;;;107.32;45.10;;;7.30;99.90;;;;;;5012170;28;20107;-65
2023/02/23 05:12:26;;;;;;;103.88;41.10;;;7.30;99.90;;;;;;5008659;28;20042;-66
2023/02/23 05:14:51;;;;;;;111.10;46.00;;;7.30;99.90;;;;;;5022721;28;20049;-65
2023/02/23 05:17:17;;;;;;;106.53;44.20;;;7.30;99.90;;;;;;5014374;28;20496;-66
2023/02/23 05:19:43;;;;;;;95.47;39.50;;;7.30;99.90;;;;;;5016322;28;20049;-67
2023/02/23 05:22:11;;;;;;;97.35;39.33;;;7.30;99.90;;;;;;5027427;28;20071;-65
2023/02/23 05:24:38;;;;;;;79.32;32.63;;;7.30;99.90;;;;;;5008750;28;20058;-66
2023/02/23 05:27:05;;;;;;;85.18;34.78;;;7.20;99.90;;;;;;5007041;28;20053;-68
2023/02/23 05:29:31;;;;;;;86.68;36.53;;;7.20;99.90;;;;;;5008022;28;20050;-65
2023/02/23 05:31:56;;;;;;;88.70;35.13;;;7.20;99.90;;;;;;5011322;28;20388;-65
2023/02/23 05:34:22;;;;;;;93.38;39.55;;;7.20;99.90;;;;;;5012353;28;20042;-66
2023/02/23 05:36:48;;;;;;;90.25;37.35;;;7.20;99.90;;;;;;5010220;28;20069;-69
2023/02/23 05:39:14;;;;;;;85.30;36.13;;;7.20;99.90;;;;;;5007320;28;20543;-66
2023/02/23 05:41:40;;;;;;;88.88;36.83;;;7.20;99.90;;;;;;5006419;28;20057;-66
2023/02/23 05:44:05;;;;;;;89.85;36.35;;;7.10;99.90;;;;;;5012325;28;20046;-66
2023/02/23 05:46:31;;;;;;;92.05;36.70;;;7.20;99.90;;;;;;5020225;28;20132;-66
2023/02/23 05:48:59;;;;;;;88.45;36.42;;;7.20;99.90;;;;;;4996098;28;20049;-66
2023/02/23 05:51:27;;;;;;;79.72;32.65;;;7.20;99.90;;;;;;5006908;28;20085;-67
2023/02/23 05:53:53;;;;;;;91.80;37.10;;;7.10;99.90;;;;;;5012593;28;20061;-70
2023/02/23 05:56:20;;;;;;;83.90;35.10;;;7.10;99.90;;;;;;5015217;28;20497;-66
2023/02/23 05:58:53;;;;;;;83.85;33.97;;;7.10;99.90;;;;;;5022250;28;20207;-71
2023/02/23 06:01:20;;;;;;;80.32;34.85;;;7.10;99.90;;;;;;5011113;28;20050;-66
2023/02/23 06:03:46;;;;;;;90.57;35.55;;;7.10;99.90;;;;;;5013847;28;20073;-65
2023/02/23 06:06:13;;;;;;;85.97;35.80;;;7.10;99.90;;;;;;5006148;28;20053;-74
2023/02/23 06:08:39;;;;;;;88.82;35.15;;;7.20;99.90;;;;;;5007733;28;20057;-65
2023/02/23 06:11:05;;;;;;;81.85;33.40;;;7.10;99.90;;;;;;5006556;28;20030;-66
2023/02/23 06:13:31;;;;;;;78.60;33.63;;;7.10;99.90;;;;;;4995622;28;20046;-67
2023/02/23 06:15:58;;;;;;;86.85;33.97;;;7.10;99.90;;;;;;5014367;28;20100;-69
2023/02/23 06:18:25;;;;;;;76.25;33.10;;;7.10;99.90;;;;;;5007857;28;20054;-65
2023/02/23 06:20:51;;;;;;;84.55;33.13;;;7.10;99.90;;;;;;5024253;28;20392;-72
2023/02/23 06:23:17;;;;;;;83.72;35.33;;;7.10;99.90;;;;;;5007632;28;20052;-68
2023/02/23 06:25:44;;;;;;;76.80;32.13;;;7.10;99.90;;;;;;5006275;28;20531;-73
2023/02/23 06:28:10;;;;;;;86.03;33.35;;;7.10;99.90;;;;;;5006545;28;20041;-66
2023/02/23 06:30:36;;;;;;;76.68;32.33;;;7.10;99.90;;;;;;5007579;28;20037;-66
2023/02/23 06:33:02;;;;;;;80.63;33.72;;;7.20;99.90;;;;;;5009123;28;20037;-67
2023/02/23 06:35:28;;;;;;;81.90;33.58;;;7.10;99.90;;;;;;5023175;28;20400;-68
2023/02/23 06:37:54;;;;;;;87.97;34.08;;;7.20;99.90;;;;;;5006506;28;20042;-71
2023/02/23 06:40:20;;;;;;;81.10;33.17;;;7.20;99.90;;;;;;5025537;28;20034;-67
2023/02/23 06:42:46;;;;;;;80.50;33.17;;;7.20;99.90;;;;;;5014579;28;20049;-66
2023/02/23 06:45:12;;;;;;;85.85;36.90;;;7.20;99.90;;;;;;4988852;28;20056;-76
2023/02/23 06:47:38;;;;;;;87.13;35.35;;;7.20;99.90;;;;;;5018360;28;20422;-63
2023/02/23 06:50:08;;;;;;;83.43;34.33;;;7.20;99.90;;;;;;4992133;28;20037;-67
2023/02/23 06:52:34;;;;;;;84.55;32.17;;;7.20;99.90;;;;;;5014099;28;20046;-64
2023/02/23 06:55:00;;;;;;;83.93;33.40;;;7.20;99.90;;;;;;5009305;28;20026;-69
2023/02/23 06:57:25;;;;;;;85.10;33.58;;;7.20;99.90;;;;;;4993399;28;20088;-65
2023/02/23 06:59:52;;;;;;;82.05;35.42;;;7.20;99.90;;;;;;5006536;28;20045;-72
2023/02/23 07:02:18;;;;;;;78.32;33.28;;;7.20;99.90;;;;;;5002771;28;20132;-63
2023/02/23 07:04:44;;;;;;;83.57;33.58;;;7.20;99.90;;;;;;5008075;28;20077;-64
2023/02/23 07:07:11;;;;;;;83.72;34.58;;;7.20;99.90;;;;;;5006864;28;20077;-63
2023/02/23 07:09:39;;;;;;;86.55;35.13;;;7.30;99.90;;;;;;5008156;28;20193;-64
2023/02/23 07:12:05;;;;;;;84.95;34.15;;;7.20;99.90;;;;;;5008916;28;20080;-63
2023/02/23 07:14:33;;;;;;;86.53;35.30;;;7.30;99.90;;;;;;5016889;28;20045;-63
2023/02/23 07:16:59;;;;;;;90.00;37.63;;;7.30;99.90;;;;;;5020069;28;20480;-64
2023/02/23 07:19:25;;;;;;;96.82;39.58;;;7.30;99.90;;;;;;5013130;28;20045;-63
2023/02/23 07:21:50;;;;;;;81.85;33.03;;;7.30;99.90;;;;;;5022225;28;20143;-63
2023/02/23 07:24:16;;;;;;;78.18;33.50;;;7.30;99.90;;;;;;4988103;28;20053;-64
2023/02/23 07:26:45;;;;;;;68.35;28.25;;;7.30;99.90;;;;;;5010000;28;20496;-67
2023/02/23 07:29:11;;;;;;;61.22;28.40;;;7.30;99.90;;;;;;5015052;28;20049;-72
2023/02/23 07:31:38;;;;;;;52.35;26.10;;;7.30;99.90;;;;;;5026896;28;20412;-64
2023/02/23 07:34:04;;;;;;;54.33;25.63;;;7.30;99.90;;;;;;5022659;28;20051;-68
2023/02/23 07:36:30;;;;;;;55.67;27.02;;;7.20;99.90;;;;;;5012456;28;20523;-63
2023/02/23 07:38:56;;;;;;;57.10;24.80;;;7.20;99.90;;;;;;5008211;28;20061;-65
2023/02/23 07:41:22;;;;;;;47.03;23.17;;;7.20;99.90;;;;;;5009295;28;20053;-64
2023/02/23 07:43:47;;;;;;;48.45;23.75;;;7.20;99.90;;;;;;5019959;28;20052;-64
2023/02/23 07:46:14;;;;;;;49.08;22.13;;;7.20;99.90;;;;;;5008205;28;20049;-69
2023/02/23 07:48:43;;;;;;;47.58;21.77;;;7.20;99.90;;;;;;5025958;28;20045;-63
2023/02/23 07:51:14;;;;;;;43.97;23.25;;;7.20;99.90;;;;;;5021751;28;20046;-64
2023/02/23 07:53:40;;;;;;;47.28;22.48;;;7.20;99.90;;;;;;5025148;28;20377;-72
2023/02/23 07:56:09;;;;;;;51.67;22.95;;;7.20;99.90;;;;;;5025213;28;20052;-81
2023/02/23 07:58:39;;;;;;;45.65;22.60;;;7.20;99.90;;;;;;5024515;28;20049;-69
2023/02/23 08:01:05;;;;;;;44.40;21.67;;;7.20;99.90;;;;;;5016473;28;20067;-63
2023/02/23 08:03:31;;;;;;;50.15;23.73;;;7.20;99.90;;;;;;5005197;28;20543;-81
2023/02/23 08:05:56;;;;;;;48.47;23.27;;;7.20;99.90;;;;;;5007879;28;20046;-78
2023/02/23 08:08:23;;;;;;;42.97;22.30;;;7.20;99.90;;;;;;5008833;28;20056;-63
2023/02/23 08:10:48;;;;;;;54.05;25.17;;;7.20;99.90;;;;;;5011647;28;20120;-76
2023/02/23 08:13:15;;;;;;;50.05;24.27;;;7.20;99.90;;;;;;5025295;28;20041;-82
2023/02/23 08:15:41;;;;;;;51.25;23.65;;;7.30;99.90;;;;;;5019594;28;20107;-70
2023/02/23 08:18:07;;;;;;;54.78;24.92;;;7.30;99.90;;;;;;5024276;28;20053;-70
2023/02/23 08:20:33;;;;;;;51.15;26.02;;;7.30;99.90;;;;;;5025397;28;20053;-67
2023/02/23 08:22:58;;;;;;;54.30;25.88;;;7.30;99.90;;;;;;5011382;28;20129;-73
2023/02/23 08:25:26;;;;;;;55.78;26.70;;;7.30;99.90;;;;;;5008261;28;20107;-64
2023/02/23 08:27:52;;;;;;;59.25;26.25;;;7.30;99.90;;;;;;5011585;28;20044;-64
2023/02/23 08:30:20;;;;;;;53.78;25.65;;;7.30;99.90;;;;;;5007778;28;20049;-70
2023/02/23 08:32:46;;;;;;;52.85;26.90;;;7.30;99.90;;;;;;5010779;28;20040;-71
2023/02/23 08:35:12;;;;;;;55.47;24.95;;;7.30;99.90;;;;;;5012208;28;20077;-63
2023/02/23 08:37:38;;;;;;;53.42;24.95;;;7.40;99.90;;;;;;5038228;28;20087;-64
2023/02/23 08:40:04;;;;;;;53.78;23.08;;;7.40;99.90;;;;;;5018494;28;20045;-75
2023/02/23 08:42:30;;;;;;;52.40;25.70;;;7.40;99.90;;;;;;5008251;28;20127;-72
2023/02/23 08:44:55;;;;;;;51.22;25.05;;;7.40;99.90;;;;;;5009820;28;20076;-63
2023/02/23 08:47:23;;;;;;;58.65;25.58;;;7.40;99.90;;;;;;5008094;28;20115;-64
2023/02/23 08:49:49;;;;;;;54.50;25.20;;;7.40;99.90;;;;;;5010609;28;20089;-83
2023/02/23 08:52:15;;;;;;;58.97;27.27;;;7.40;99.90;;;;;;5011046;28;20392;-71
2023/02/23 08:54:41;;;;;;;57.58;27.67;;;7.40;99.90;;;;;;5010768;28;20049;-63
2023/02/23 08:57:07;;;;;;;63.17;28.17;;;7.40;99.90;;;;;;5025385;28;20065;-71
2023/02/23 08:59:33;;;;;;;65.72;30.10;;;7.40;99.90;;;;;;5008306;28;20713;-64
2023/02/23 09:01:58;;;;;;;62.40;28.10;;;7.40;99.90;;;;;;5010378;28;20046;-63
2023/02/23 09:04:24;;;;;;;67.03;29.63;;;7.50;99.90;;;;;;5006109;28;20132;-64
2023/02/23 09:06:50;;;;;;;67.15;29.25;;;7.40;99.90;;;;;;5010940;28;20057;-63
2023/02/23 09:09:17;;;;;;;60.03;26.58;;;7.50;99.90;;;;;;5023489;28;20034;-63
2023/02/23 09:11:42;;;;;;;60.88;28.27;;;7.40;99.90;;;;;;5017624;28;20045;-64
2023/02/23 09:14:08;;;;;;;61.08;26.88;;;7.40;99.90;;;;;;5009426;28;20100;-64
2023/02/23 09:16:35;;;;;;;77.18;28.83;;;7.40;99.90;;;;;;5000806;28;20049;-63
2023/02/23 09:19:02;;;;;;;73.63;29.63;;;7.50;99.90;;;;;;5014107;28;20053;-64
2023/02/23 09:21:28;;;;;;;80.53;31.00;;;7.50;99.90;;;;;;5010424;28;20042;-63
2023/02/23 09:23:55;;;;;;;88.30;32.25;;;7.50;99.90;;;;;;5014201;28;20042;-64
2023/02/23 09:26:22;;;;;;;99.80;34.40;;;7.60;99.90;;;;;;5013970;28;20077;-63
2023/02/23 09:28:49;;;;;;;101.75;36.13;;;7.50;99.90;;;;;;5010618;28;20070;-64
2023/02/23 09:31:18;;;;;;;102.65;35.70;;;7.50;99.90;;;;;;5010872;28;20054;-63
2023/02/23 09:33:43;;;;;;;99.28;36.00;;;7.60;99.90;;;;;;5015733;28;20058;-63
2023/02/23 09:36:14;;;;;;;93.93;35.30;;;7.60;99.90;;;;;;4996148;28;20038;-64
2023/02/23 09:38:39;;;;;;;94.78;32.80;;;7.60;99.90;;;;;;5009899;28;20076;-64
2023/02/23 09:41:36;;;;;;;95.68;33.50;;;7.70;99.90;;;;;;5025095;28;20123;-64
2023/02/23 09:44:14;;;;;;;79.82;31.75;;;7.70;99.90;;;;;;5030027;28;20057;-76
2023/02/23 09:46:46;;;;;;;85.53;32.30;;;7.70;99.90;;;;;;5012747;28;20500;-63
2023/02/23 09:49:18;;;;;;;83.43;32.72;;;7.70;99.90;;;;;;5001182;28;20041;-63
2023/02/23 09:51:50;;;;;;;86.63;32.78;;;7.80;99.90;;;;;;5011451;28;20049;-66
2023/02/23 09:54:17;;;;;;;88.20;33.95;;;7.80;99.90;;;;;;5021007;28;20038;-72
2023/02/23 09:56:46;;;;;;;81.43;30.80;;;7.80;99.90;;;;;;5020384;28;20112;-63
2023/02/23 09:59:15;;;;;;;84.75;31.35;;;7.80;99.90;;;;;;5015382;28;20038;-63
2023/02/23 10:01:40;;;;;;;77.35;28.98;;;7.80;99.90;;;;;;5009797;28;20516;-64
2023/02/23 10:04:26;;;;;;;90.78;31.63;;;7.90;99.90;;;;;;5006084;28;20038;-63
2023/02/23 10:07:12;;;;;;;78.95;31.88;;;7.90;99.90;;;;;;5012814;28;20073;-63
2023/02/23 10:09:58;;;;;;;86.28;31.60;;;8.00;99.90;;;;;;5016121;28;20099;-63
2023/02/23 10:12:45;;;;;;;88.78;34.05;;;8.00;99.90;;;;;;5015306;28;20504;-64
2023/02/23 10:15:22;;;;;;;84.60;33.25;;;8.10;99.90;;;;;;5022987;28;20042;-64
2023/02/23 10:18:11;;;;;;;99.45;35.03;;;8.10;99.90;;;;;;5004350;28;20093;-63
2023/02/23 10:20:49;;;;;;;94.68;34.40;;;8.20;99.90;;;;;;5009615;28;20049;-70
2023/02/23 10:23:28;;;;;;;89.75;33.90;;;8.20;99.90;;;;;;4990558;28;20056;-63
2023/02/23 10:25:58;;;;;;;95.90;34.92;;;8.40;99.90;;;;;;5026559;28;20077;-67
2023/02/23 10:28:25;;;;;;;96.15;35.90;;;8.40;99.90;;;;;;5014850;28;20041;-63
2023/02/23 10:30:54;;;;;;;104.95;36.75;;;8.50;99.90;;;;;;5010307;28;20056;-65
2023/02/23 10:33:31;;;;;;;95.03;33.78;;;8.50;99.90;;;;;;5010635;28;20038;-62
2023/02/23 10:36:07;;;;;;;80.88;31.45;;;8.60;99.90;;;;;;5013727;28;20046;-62
2023/02/23 10:38:33;;;;;;;92.45;33.05;;;8.60;99.90;;;;;;5018719;28;20092;-62
2023/02/23 10:41:00;;;;;;;87.18;30.60;;;8.60;99.90;;;;;;5007310;28;20081;-63
2023/02/23 10:43:26;;;;;;;93.78;31.08;;;8.60;99.90;;;;;;5034661;28;20054;-65
2023/02/23 10:45:52;;;;;;;83.75;30.88;;;8.60;99.90;;;;;;5007356;28;20062;-62
2023/02/23 10:48:35;;;;;;;95.70;31.95;;;8.70;99.90;;;;;;5009373;28;20823;-62
2023/02/23 10:51:04;;;;;;;91.75;30.83;;;8.70;99.90;;;;;;5005778;28;20804;-62
2023/02/23 10:53:35;;;;;;;89.32;30.20;;;8.80;99.90;;;;;;5007627;28;20092;-62
2023/02/23 10:56:07;;;;;;;83.75;28.50;;;8.90;99.90;;;;;;5008316;28;20046;-62
2023/02/23 10:58:58;;;;;;;75.43;27.75;;;8.90;99.90;;;;;;5008096;28;20063;-62
2023/02/23 11:01:43;;;;;;;82.40;28.17;;;9.00;99.90;;;;;;5004105;28;20054;-62
2023/02/23 11:04:21;;;;;;;87.03;29.05;;;9.00;99.90;;;;;;5007244;28;20393;-65
2023/02/23 11:06:48;;;;;;;75.38;26.15;;;9.00;99.90;;;;;;5011577;28;20046;-63
2023/02/23 11:09:31;;;;;;;78.97;28.08;;;8.90;99.90;;;;;;4993556;28;20041;-62
2023/02/23 11:12:03;;;;;;;82.45;27.48;;;8.90;99.90;;;;;;5020402;28;20069;-62
2023/02/23 11:14:30;;;;;;;77.80;28.02;;;8.80;99.90;;;;;;5007295;28;20049;-62
2023/02/23 11:16:58;;;;;;;80.60;26.60;;;8.70;99.90;;;;;;5015566;28;20046;-63
2023/02/23 11:19:30;;;;;;;71.10;26.30;;;8.70;99.90;;;;;;5009847;28;20065;-62
2023/02/23 11:21:56;;;;;;;73.90;26.63;;;8.70;99.90;;;;;;5012067;28;20049;-62
2023/02/23 11:24:33;;;;;;;72.30;26.10;;;8.70;99.90;;;;;;5008160;28;20095;-62
2023/02/23 11:27:06;;;;;;;79.05;26.65;;;8.70;99.90;;;;;;5007851;28;20492;-62
2023/02/23 11:29:35;;;;;;;70.25;26.33;;;8.70;99.90;;;;;;5009528;28;20046;-62
2023/02/23 11:32:15;;;;;;;67.13;25.15;;;8.80;99.90;;;;;;5011694;28;20050;-62
2023/02/23 11:34:42;;;;;;;72.07;25.52;;;8.80;99.90;;;;;;5020768;28;20472;-64
2023/02/23 11:37:19;;;;;;;68.53;24.85;;;8.80;99.90;;;;;;5027046;28;20072;-65
2023/02/23 11:40:00;;;;;;;71.72;23.77;;;8.90;99.90;;;;;;5014184;28;20053;-64
2023/02/23 11:42:32;;;;;;;67.32;24.63;;;8.90;99.90;;;;;;5009303;28;20049;-71
2023/02/23 11:45:01;;;;;;;72.25;25.05;;;8.90;99.90;;;;;;5039769;28;20049;-66
2023/02/23 11:47:28;;;;;;;59.08;23.75;;;8.90;99.90;;;;;;5006646;28;20053;-64
2023/02/23 11:49:55;;;;;;;62.83;25.13;;;9.00;99.90;;;;;;5011170;28;20606;-64
2023/02/23 11:52:23;;;;;;;69.78;24.30;;;9.00;99.90;;;;;;5007619;28;20077;-64
2023/02/23 11:55:14;;;;;;;68.35;25.27;;;9.00;99.90;;;;;;5009987;28;20053;-66
2023/02/23 11:57:40;;;;;;;71.75;26.10;;;9.00;99.90;;;;;;5015997;28;20129;-64
2023/02/23 12:00:26;;;;;;;66.18;24.45;;;8.90;99.90;;;;;;5012044;28;20129;-64
2023/02/23 12:02:57;;;;;;;77.43;26.50;;;8.90;99.90;;;;;;5012409;28;20062;-64
2023/02/23 12:05:28;;;;;;;71.35;25.33;;;8.70;99.90;;;;;;5013145;28;20053;-84
2023/02/23 12:08:00;;;;;;;89.78;28.45;;;8.70;99.90;;;;;;5012217;28;20037;-65
2023/02/23 12:10:43;;;;;;;85.53;30.55;;;8.60;99.90;;;;;;5008436;28;20124;-62
2023/02/23 12:13:09;;;;;;;92.20;31.52;;;8.60;99.90;;;;;;5015176;28;20046;-63
2023/02/23 12:15:58;;;;;;;87.82;29.70;;;8.50;99.90;;;;;;5013979;28;20046;-81
2023/02/23 12:18:41;;;;;;;112.30;35.17;;;8.40;99.90;;;;;;5023353;28;20033;-80
2023/02/23 12:21:17;;;;;;;129.55;35.55;;;8.20;99.90;;;;;;5011692;28;20053;-63
2023/02/23 12:23:45;;;;;;;129.90;36.63;;;8.10;99.90;;;;;;5009562;28;20069;-86
2023/02/23 12:26:21;;;;;;;131.60;33.65;;;8.00;99.90;;;;;;5008388;28;20077;-76
2023/02/23 12:28:59;;;;;;;147.38;35.42;;;7.90;99.90;;;;;;5014747;28;20520;-81
2023/02/23 12:31:57;;;;;;;147.88;37.58;;;7.90;99.90;;;;;;5008321;28;20049;-62
2023/02/23 12:34:45;;;;;;;153.95;38.35;;;7.90;99.90;;;;;;5015295;28;20049;-67
2023/02/23 12:37:28;;;;;;;140.50;36.92;;;7.80;99.90;;;;;;5018084;28;20568;-62
2023/02/23 12:40:18;;;;;;;171.00;43.58;;;7.80;99.90;;;;;;5018048;28;20049;-62
2023/02/23 12:43:21;;;;;;;145.75;38.33;;;7.90;99.90;;;;;;5008385;28;20061;-67
2023/02/23 12:45:58;;;;;;;154.65;38.30;;;7.80;99.90;;;;;;5011634;28;20049;-63
2023/02/23 12:48:46;;;;;;;157.68;39.78;;;7.90;99.90;;;;;;5007375;28;20042;-62
2023/02/23 12:51:24;;;;;;;159.02;39.65;;;7.80;99.90;;;;;;5010013;28;20034;-62
2023/02/23 12:53:51;;;;;;;162.77;42.60;;;7.80;99.90;;;;;;5019008;28;20057;-62
2023/02/23 12:56:32;;;;;;;140.30;36.35;;;7.80;99.90;;;;;;5007365;28;20123;-65
2023/02/23 12:59:37;;;;;;;166.35;41.78;;;7.80;99.90;;;;;;5015007;28;20042;-62
2023/02/23 13:02:42;;;;;;;162.93;38.53;;;7.80;99.90;;;;;;5006608;28;20062;-62
2023/02/23 13:05:31;;;;;;;161.43;40.13;;;7.80;99.90;;;;;;5001764;28;20065;-62
2023/02/23 13:08:00;;;;;;;54.25;7.43;;;7.80;99.90;;;;;;5009204;28;20064;-63
2023/02/23 13:10:52;;;;;;;65.35;8.35;;;7.50;99.90;;;;;;5010075;28;20046;-62
2023/02/23 13:13:37;;;;;;;69.18;8.80;;;7.40;99.90;;;;;;5009260;28;20558;-62
2023/02/23 13:16:15;;;;;;;64.15;8.65;;;7.40;99.90;;;;;;5019289;28;20110;-62
2023/02/23 13:19:08;;;;;;;60.25;8.40;;;7.30;99.90;;;;;;5008557;28;20049;-65
2023/02/23 13:21:40;;;;;;;99.03;9.23;;;7.20;99.90;;;;;;5018490;28;20166;-61
2023/02/23 13:24:24;;;;;;;86.50;10.40;;;7.10;99.90;;;;;;5009400;28;20121;-86
2023/02/23 13:27:15;;;;;;;90.00;10.63;;;7.10;99.90;;;;;;5017034;28;20153;-61
2023/02/23 13:29:52;;;;;;;85.28;9.27;;;7.00;99.90;;;;;;4999914;28;20068;-80
2023/02/23 13:32:22;;;;;;;49.67;6.72;;;7.00;99.90;;;;;;5008153;28;20153;-61
2023/02/23 13:34:56;;;;;;;42.05;6.32;;;7.00;99.90;;;;;;5008883;28;20599;-68
2023/02/23 13:37:33;;;;;;;49.72;7.18;;;7.00;99.90;;;;;;5008399;28;20092;-61
2023/02/23 13:40:08;;;;;;;47.50;8.23;;;7.00;99.90;;;;;;5007137;28;20931;-77
2023/02/23 13:42:49;;;;;;;34.13;5.55;;;6.90;99.90;;;;;;5017825;28;20045;-76
2023/02/23 13:45:31;;;;;;;47.50;6.97;;;6.80;99.90;;;;;;5007493;28;20049;-61
2023/02/23 13:48:19;;;;;;;41.55;6.72;;;6.70;99.90;;;;;;5019425;28;20049;-73
2023/02/23 13:50:57;;;;;;;63.08;7.82;;;6.70;99.90;;;;;;5010349;28;20061;-61
2023/02/23 13:53:42;;;;;;;40.33;6.78;;;6.70;99.90;;;;;;5017440;28;20042;-66
2023/02/23 13:56:14;;;;;;;57.92;7.97;;;6.60;99.90;;;;;;5011653;28;20496;-71
2023/02/23 14:01:52;;;;;;;55.65;7.32;;;6.60;99.90;;;;;;5042545;28;20434;-64
2023/02/23 14:04:20;;;;;;;92.45;9.73;;;6.60;99.90;;;;;;5046771;28;20045;-63
2023/02/23 14:06:52;;;;;;;71.82;10.70;;;6.60;99.90;;;;;;5018382;28;20072;-64
2023/02/23 14:09:41;;;;;;;64.13;8.77;;;6.60;99.90;;;;;;5039537;28;20036;-64
2023/02/23 14:12:15;;;;;;;75.88;9.52;;;6.50;99.90;;;;;;5023150;28;20044;-64
2023/02/23 14:14:43;;;;;;;65.13;8.20;;;6.50;99.90;;;;;;5028009;28;20041;-63
2023/02/23 14:17:16;;;;;;;60.17;7.57;;;6.50;99.90;;;;;;5046608;28;20479;-63
2023/02/23 14:20:21;;;;;;;56.35;6.72;;;6.30;99.90;;;;;;5017464;28;20414;-63
2023/02/23 14:23:15;;;;;;;51.30;8.30;;;6.30;99.90;;;;;;5012283;28;20052;-64